Time;durP1;ratioP1;P1;durP2;ratioP2;P2;SDS_P1;SDS_P2;PMS_P1;PMS_P2;Temp;Humidity;BMP_temperature;BMP_pressure;BME280_temperature;BME280_humidity;BME280_pressure;Samples;Min_cycle;Max_cycle;Signal;HPM_P1;HPM_P2
2021/10/24 00:01:20;;;;;;;8.82;4.60;;;8.40;99.90;;;;;;5045154;28;20033;-61
2021/10/24 00:03:46;;;;;;;11.82;5.00;;;8.40;99.90;;;;;;5043530;28;20065;-61
2021/10/24 00:06:13;;;;;;;8.90;4.75;;;8.40;99.90;;;;;;5045335;28;20073;-61
2021/10/24 00:08:38;;;;;;;9.93;4.65;;;8.50;99.90;;;;;;5048432;28;20064;-61
2021/10/24 00:11:04;;;;;;;9.30;5.10;;;8.50;99.90;;;;;;5046416;28;20087;-62
2021/10/24 00:13:30;;;;;;;10.45;3.92;;;8.50;99.90;;;;;;5048663;28;20378;-62
2021/10/24 00:15:56;;;;;;;8.57;4.45;;;8.50;99.90;;;;;;5047617;28;20365;-62
2021/10/24 00:18:22;;;;;;;13.43;4.50;;;8.60;99.90;;;;;;5048615;28;20037;-61
2021/10/24 00:20:49;;;;;;;10.13;4.85;;;8.60;99.90;;;;;;5048203;28;20394;-61
2021/10/24 00:23:14;;;;;;;11.60;4.32;;;8.60;99.90;;;;;;5047681;28;20041;-64
2021/10/24 00:25:40;;;;;;;8.27;4.35;;;8.60;99.90;;;;;;5030508;28;20079;-63
2021/10/24 00:28:06;;;;;;;16.95;4.10;;;8.70;99.90;;;;;;5043882;28;20060;-61
2021/10/24 00:30:32;;;;;;;12.30;4.28;;;8.60;99.90;;;;;;5030616;28;20067;-62
2021/10/24 00:32:57;;;;;;;11.32;4.40;;;8.70;99.90;;;;;;5047916;28;20029;-61
2021/10/24 00:35:23;;;;;;;8.98;4.50;;;8.70;99.90;;;;;;5048521;28;20551;-62
2021/10/24 00:37:48;;;;;;;8.57;4.25;;;8.70;99.90;;;;;;5026582;28;20592;-60
2021/10/24 00:40:14;;;;;;;7.57;3.50;;;8.70;99.90;;;;;;5047377;28;20045;-61
2021/10/24 00:42:47;;;;;;;10.48;4.50;;;8.70;99.90;;;;;;5048501;28;20056;-64
2021/10/24 00:45:13;;;;;;;7.57;3.88;;;8.70;99.90;;;;;;5047292;28;20052;-62
2021/10/24 00:47:39;;;;;;;19.50;4.75;;;8.60;99.90;;;;;;5048063;28;20029;-61
2021/10/24 00:50:05;;;;;;;9.93;4.55;;;8.60;99.90;;;;;;5047111;28;20497;-63
2021/10/24 00:52:30;;;;;;;12.23;4.30;;;8.60;99.90;;;;;;5047901;28;20133;-63
2021/10/24 00:54:56;;;;;;;7.43;3.75;;;8.60;99.90;;;;;;5047314;28;20048;-64
2021/10/24 00:57:22;;;;;;;10.18;4.47;;;8.60;99.90;;;;;;5047883;28;20044;-62
2021/10/24 00:59:47;;;;;;;8.60;4.10;;;8.60;99.90;;;;;;5048035;28;20029;-61
2021/10/24 01:02:14;;;;;;;8.88;4.30;;;8.50;99.90;;;;;;5047110;28;20091;-62
2021/10/24 01:04:40;;;;;;;11.65;4.45;;;8.60;99.90;;;;;;5048442;28;20040;-62
2021/10/24 01:07:06;;;;;;;11.98;5.20;;;8.50;99.90;;;;;;5046913;28;20137;-62
2021/10/24 01:09:33;;;;;;;10.50;4.38;;;8.50;99.90;;;;;;5047879;28;20033;-61
2021/10/24 01:11:59;;;;;;;10.05;4.70;;;8.50;99.90;;;;;;5047177;28;20132;-63
2021/10/24 01:14:26;;;;;;;8.43;4.03;;;8.50;99.90;;;;;;5048057;28;20032;-62
2021/10/24 01:16:52;;;;;;;13.07;4.40;;;8.50;99.90;;;;;;5048167;28;20041;-62
2021/10/24 01:19:19;;;;;;;8.65;4.13;;;8.40;99.90;;;;;;5028539;28;20045;-61
2021/10/24 01:21:46;;;;;;;10.70;3.65;;;8.30;99.90;;;;;;5047715;28;20091;-62
2021/10/24 01:24:11;;;;;;;10.70;4.40;;;8.20;99.90;;;;;;5047078;28;20029;-61
2021/10/24 01:26:39;;;;;;;10.48;4.80;;;8.20;99.90;;;;;;5045590;28;20102;-60
2021/10/24 01:29:06;;;;;;;8.98;4.20;;;8.10;99.90;;;;;;5045282;28;20037;-60
2021/10/24 01:31:32;;;;;;;10.70;4.68;;;8.00;99.90;;;;;;5047884;28;20508;-62
2021/10/24 01:33:58;;;;;;;8.77;4.45;;;7.90;99.90;;;;;;5046777;28;20098;-60
2021/10/24 01:36:24;;;;;;;11.50;4.95;;;7.80;99.90;;;;;;5047190;28;20525;-61
2021/10/24 01:38:50;;;;;;;17.45;5.25;;;7.80;99.90;;;;;;5044243;28;20133;-63
2021/10/24 01:41:17;;;;;;;10.55;4.70;;;7.80;99.90;;;;;;5046982;28;20078;-62
2021/10/24 01:43:44;;;;;;;10.75;4.65;;;7.70;99.90;;;;;;5047728;28;20094;-63
2021/10/24 01:46:10;;;;;;;9.48;4.18;;;7.70;99.90;;;;;;5029181;28;20175;-62
2021/10/24 01:48:35;;;;;;;13.95;4.38;;;7.60;99.90;;;;;;5047571;28;20128;-62
2021/10/24 01:51:02;;;;;;;10.15;4.57;;;7.50;99.90;;;;;;5046483;28;20048;-61
2021/10/24 01:53:33;;;;;;;12.30;4.78;;;7.60;99.90;;;;;;5047638;28;20120;-62
2021/10/24 01:55:59;;;;;;;9.45;4.50;;;7.50;99.90;;;;;;5046863;28;20088;-63
2021/10/24 01:58:25;;;;;;;13.32;5.30;;;7.40;99.90;;;;;;5047192;28;20033;-61
2021/10/24 02:00:52;;;;;;;14.23;5.45;;;7.50;99.90;;;;;;5049991;28;20043;-61
2021/10/24 02:03:18;;;;;;;11.57;5.35;;;7.40;99.90;;;;;;5050254;28;20528;-64
2021/10/24 02:05:44;;;;;;;10.93;5.13;;;7.40;99.90;;;;;;5051427;28;20075;-61
2021/10/24 02:08:10;;;;;;;10.18;5.22;;;7.40;99.90;;;;;;5049950;28;20136;-63
2021/10/24 02:10:37;;;;;;;10.50;5.07;;;7.40;99.90;;;;;;5050945;28;20029;-62
2021/10/24 02:13:03;;;;;;;9.85;5.25;;;7.40;99.90;;;;;;5050334;28;20501;-61
2021/10/24 02:15:29;;;;;;;12.65;5.05;;;7.30;99.90;;;;;;5051110;28;20481;-61
2021/10/24 02:17:55;;;;;;;11.00;5.07;;;7.30;99.90;;;;;;5049936;28;20048;-62
2021/10/24 02:20:21;;;;;;;9.48;4.47;;;7.30;99.90;;;;;;5050126;28;20048;-63
2021/10/24 02:22:47;;;;;;;12.40;5.40;;;7.20;99.90;;;;;;5051022;28;20036;-62
2021/10/24 02:25:13;;;;;;;11.13;4.80;;;7.20;99.90;;;;;;5049615;28;20401;-62
2021/10/24 02:27:39;;;;;;;12.60;4.95;;;7.10;99.90;;;;;;5049683;28;20108;-61
2021/10/24 02:30:07;;;;;;;16.77;6.55;;;7.10;99.90;;;;;;5031653;28;20498;-60
2021/10/24 02:32:32;;;;;;;13.88;5.57;;;7.10;99.90;;;;;;5050551;28;20029;-63
2021/10/24 02:34:58;;;;;;;13.30;5.43;;;7.00;99.90;;;;;;5049853;28;20210;-61
2021/10/24 02:37:23;;;;;;;9.93;4.85;;;7.00;99.90;;;;;;5047054;28;20052;-61
2021/10/24 02:39:49;;;;;;;10.27;5.50;;;7.00;99.90;;;;;;5050275;28;20037;-61
2021/10/24 02:42:15;;;;;;;11.38;5.00;;;7.00;99.90;;;;;;5049665;28;20049;-63
2021/10/24 02:44:41;;;;;;;10.45;5.07;;;7.00;99.90;;;;;;5050305;28;20041;-63
2021/10/24 02:47:07;;;;;;;11.32;5.70;;;7.00;99.90;;;;;;5049302;28;20025;-63
2021/10/24 02:49:33;;;;;;;13.80;5.43;;;7.00;99.90;;;;;;5050172;28;20087;-63
2021/10/24 02:51:58;;;;;;;13.63;5.18;;;6.90;99.90;;;;;;5049570;28;20112;-63
2021/10/24 02:54:25;;;;;;;12.38;5.05;;;6.90;99.90;;;;;;5050060;28;20049;-60
2021/10/24 02:56:51;;;;;;;12.60;5.57;;;6.80;99.90;;;;;;5050491;28;20082;-62
2021/10/24 02:59:18;;;;;;;12.93;5.22;;;6.80;99.90;;;;;;5049108;28;20037;-61
2021/10/24 03:01:44;;;;;;;10.50;4.85;;;6.80;99.90;;;;;;5050198;28;20037;-61
2021/10/24 03:04:13;;;;;;;17.67;5.45;;;6.80;99.90;;;;;;5044751;28;20140;-62
2021/10/24 03:06:39;;;;;;;9.85;5.45;;;6.80;99.90;;;;;;5050152;28;20037;-63
2021/10/24 03:09:06;;;;;;;13.68;5.55;;;6.80;99.90;;;;;;5048589;28;20662;-61
2021/10/24 03:11:32;;;;;;;13.50;5.78;;;6.80;99.90;;;;;;5049919;28;20048;-61
2021/10/24 03:13:57;;;;;;;12.82;5.75;;;6.80;99.90;;;;;;5048990;28;20039;-61
2021/10/24 03:16:23;;;;;;;11.50;5.38;;;6.70;99.90;;;;;;5049685;28;20053;-61
2021/10/24 03:18:49;;;;;;;11.93;5.50;;;6.70;99.90;;;;;;5048895;28;20440;-62
2021/10/24 03:21:14;;;;;;;13.57;6.07;;;6.70;99.90;;;;;;5048940;28;20065;-61
2021/10/24 03:23:40;;;;;;;15.55;6.05;;;6.70;99.90;;;;;;5049788;28;20388;-61
2021/10/24 03:26:06;;;;;;;11.63;6.25;;;6.60;99.90;;;;;;5048744;28;20458;-61
2021/10/24 03:28:33;;;;;;;14.10;5.35;;;6.70;99.90;;;;;;5045290;28;20087;-62
2021/10/24 03:31:00;;;;;;;14.18;5.40;;;6.60;99.90;;;;;;5048448;28;20025;-60
2021/10/24 03:33:26;;;;;;;13.77;5.60;;;6.60;99.90;;;;;;5049582;28;20040;-62
2021/10/24 03:35:51;;;;;;;11.85;5.57;;;6.70;99.90;;;;;;5049424;28;20504;-62
2021/10/24 03:38:17;;;;;;;13.32;5.63;;;6.60;99.90;;;;;;5045487;28;20128;-61
2021/10/24 03:40:43;;;;;;;13.98;5.30;;;6.60;99.90;;;;;;5049439;28;20454;-62
2021/10/24 03:43:08;;;;;;;17.83;7.05;;;6.60;99.90;;;;;;5048393;28;20059;-61
2021/10/24 03:45:34;;;;;;;13.40;6.10;;;6.50;99.90;;;;;;5049124;28;20029;-61
2021/10/24 03:48:00;;;;;;;13.13;6.00;;;6.50;99.90;;;;;;5048507;28;20041;-62
2021/10/24 03:50:25;;;;;;;14.23;5.72;;;6.60;99.90;;;;;;5049089;28;20052;-62
2021/10/24 03:52:51;;;;;;;10.60;5.40;;;6.50;99.90;;;;;;5049294;28;20061;-61
2021/10/24 03:55:17;;;;;;;10.38;5.95;;;6.50;99.90;;;;;;5048208;28;20041;-62
2021/10/24 03:57:43;;;;;;;13.70;5.40;;;6.60;99.90;;;;;;5049143;28;20041;-62
2021/10/24 04:00:10;;;;;;;16.35;5.72;;;6.50;99.90;;;;;;5047544;28;20037;-60
2021/10/24 04:02:56;;;;;;;11.15;5.30;;;6.50;99.90;;;;;;5048626;28;20048;-63
2021/10/24 04:05:23;;;;;;;12.93;5.03;;;6.50;99.90;;;;;;5046465;28;20120;-61
2021/10/24 04:07:49;;;;;;;13.32;6.03;;;6.50;99.90;;;;;;5049018;28;20178;-61
2021/10/24 04:10:17;;;;;;;8.35;5.25;;;6.50;99.90;;;;;;5029758;28;20044;-62
2021/10/24 04:12:43;;;;;;;11.98;5.55;;;6.50;99.90;;;;;;5048764;28;20128;-62
2021/10/24 04:15:09;;;;;;;15.50;5.85;;;6.50;99.90;;;;;;5047878;28;20120;-62
2021/10/24 04:17:34;;;;;;;13.73;5.05;;;6.50;99.90;;;;;;5048800;28;20029;-62
2021/10/24 04:20:00;;;;;;;12.57;6.03;;;6.50;99.90;;;;;;5046998;28;20041;-61
2021/10/24 04:22:28;;;;;;;16.05;6.45;;;6.50;99.90;;;;;;5048376;28;20032;-61
2021/10/24 04:24:54;;;;;;;15.55;5.53;;;6.50;99.90;;;;;;5048556;28;20044;-62
2021/10/24 04:27:20;;;;;;;17.27;6.93;;;6.50;99.90;;;;;;5043513;28;20044;-61
2021/10/24 04:29:45;;;;;;;15.43;5.43;;;6.40;99.90;;;;;;5048269;28;20033;-61
2021/10/24 04:32:11;;;;;;;10.95;5.53;;;6.40;99.90;;;;;;5047685;28;20033;-62
2021/10/24 04:34:36;;;;;;;13.90;6.20;;;6.40;99.90;;;;;;5048620;28;20037;-63
2021/10/24 04:37:02;;;;;;;14.80;5.75;;;6.40;99.90;;;;;;5045281;28;20028;-61
2021/10/24 04:39:28;;;;;;;14.88;5.80;;;6.40;99.90;;;;;;5048215;28;20115;-62
2021/10/24 04:41:53;;;;;;;14.77;5.82;;;6.40;99.90;;;;;;5048110;28;20043;-61
2021/10/24 04:44:19;;;;;;;17.65;5.47;;;6.40;99.90;;;;;;5047476;28;20033;-64
2021/10/24 04:46:44;;;;;;;13.13;6.65;;;6.30;99.90;;;;;;5048365;28;20137;-62
2021/10/24 04:49:10;;;;;;;16.38;6.00;;;6.30;99.90;;;;;;5047230;28;20040;-61
2021/10/24 04:51:35;;;;;;;14.07;5.72;;;6.30;99.90;;;;;;5048137;28;20033;-61
2021/10/24 04:54:01;;;;;;;13.48;5.75;;;6.30;99.90;;;;;;5047336;28;20037;-62
2021/10/24 04:56:27;;;;;;;15.70;4.93;;;6.20;99.90;;;;;;5047949;28;20071;-62
2021/10/24 04:58:52;;;;;;;12.52;5.95;;;6.20;99.90;;;;;;5030363;28;20040;-62
2021/10/24 05:01:18;;;;;;;10.30;5.20;;;6.20;99.90;;;;;;5029572;28;20040;-61
2021/10/24 05:03:44;;;;;;;8.73;5.35;;;6.20;99.90;;;;;;5048190;28;20044;-62
2021/10/24 05:06:10;;;;;;;11.43;5.50;;;6.20;99.90;;;;;;5047008;28;20033;-62
2021/10/24 05:08:36;;;;;;;11.93;5.57;;;6.20;99.90;;;;;;5047949;28;20128;-61
2021/10/24 05:11:02;;;;;;;12.48;5.80;;;6.20;99.90;;;;;;5046960;28;20025;-63
2021/10/24 05:13:27;;;;;;;10.18;5.28;;;6.20;99.90;;;;;;5048117;28;20037;-62
2021/10/24 05:15:53;;;;;;;10.82;6.05;;;6.20;99.90;;;;;;5048057;28;20033;-61
2021/10/24 05:18:19;;;;;;;10.27;5.07;;;6.30;99.90;;;;;;5046821;28;20037;-61
2021/10/24 05:20:44;;;;;;;9.60;5.25;;;6.30;99.90;;;;;;5048044;28;20037;-62
2021/10/24 05:23:10;;;;;;;16.58;5.03;;;6.20;99.90;;;;;;5047159;28;20029;-62
2021/10/24 05:25:35;;;;;;;16.83;6.10;;;6.20;99.90;;;;;;5047691;28;20033;-60
2021/10/24 05:28:01;;;;;;;13.05;5.50;;;6.20;99.90;;;;;;5046186;28;20041;-61
2021/10/24 05:30:26;;;;;;;15.43;5.88;;;6.20;99.90;;;;;;5048081;28;20474;-61
2021/10/24 05:32:52;;;;;;;13.05;5.55;;;6.20;99.90;;;;;;5047993;28;20138;-62
2021/10/24 05:35:18;;;;;;;13.48;5.72;;;6.20;99.90;;;;;;5048404;28;20053;-61
2021/10/24 05:37:44;;;;;;;13.27;6.65;;;6.10;99.90;;;;;;5047819;28;20378;-63
2021/10/24 05:40:11;;;;;;;10.63;5.10;;;6.10;99.90;;;;;;5049690;28;20499;-60
2021/10/24 05:42:37;;;;;;;12.52;5.60;;;6.10;99.90;;;;;;5051396;28;20025;-62
2021/10/24 05:45:04;;;;;;;10.55;5.15;;;6.10;99.90;;;;;;5050716;28;20040;-61
2021/10/24 05:47:29;;;;;;;14.55;5.55;;;6.00;99.90;;;;;;5051862;28;20032;-62
2021/10/24 05:49:55;;;;;;;11.13;5.05;;;6.00;99.90;;;;;;5050715;28;20378;-65
2021/10/24 05:52:22;;;;;;;13.65;4.78;;;6.00;99.90;;;;;;5051429;28;20035;-61
2021/10/24 05:54:47;;;;;;;11.90;5.32;;;6.00;99.90;;;;;;5051135;28;20033;-61
2021/10/24 05:57:13;;;;;;;10.13;5.25;;;6.00;99.90;;;;;;5050581;28;20512;-61
2021/10/24 05:59:39;;;;;;;12.55;5.93;;;6.00;99.90;;;;;;5051270;28;20512;-61
2021/10/24 06:02:04;;;;;;;11.48;4.90;;;6.00;99.90;;;;;;5049897;28;20032;-61
2021/10/24 06:04:30;;;;;;;11.63;4.63;;;6.00;99.90;;;;;;5051332;28;20040;-61
2021/10/24 06:06:55;;;;;;;14.55;6.03;;;6.00;99.90;;;;;;5050649;28;20485;-64
2021/10/24 06:09:29;;;;;;;11.02;4.95;;;6.00;99.90;;;;;;5050602;28;20048;-61
2021/10/24 06:11:59;;;;;;;15.68;5.10;;;6.00;99.90;;;;;;5051018;28;20094;-64
2021/10/24 06:14:25;;;;;;;12.90;5.45;;;6.00;99.90;;;;;;5050729;28;20033;-62
2021/10/24 06:16:51;;;;;;;12.20;4.88;;;5.90;99.90;;;;;;5051004;28;20479;-64
2021/10/24 06:19:17;;;;;;;16.02;5.30;;;5.90;99.90;;;;;;5049553;28;20037;-61
2021/10/24 06:21:43;;;;;;;14.82;4.95;;;5.90;99.90;;;;;;5050827;28;20029;-61
2021/10/24 06:24:09;;;;;;;8.48;5.35;;;5.90;99.90;;;;;;5049902;28;20041;-62
2021/10/24 06:26:34;;;;;;;9.55;5.28;;;5.90;99.90;;;;;;5050353;28;20098;-60
2021/10/24 06:29:00;;;;;;;9.20;5.10;;;5.80;99.90;;;;;;5049721;28;20542;-62
2021/10/24 06:31:26;;;;;;;10.50;5.28;;;5.90;99.90;;;;;;5050778;28;20033;-60
2021/10/24 06:33:51;;;;;;;10.18;5.32;;;5.80;99.90;;;;;;5050321;28;20041;-64
2021/10/24 06:36:17;;;;;;;9.38;5.13;;;5.80;99.90;;;;;;5049747;28;20069;-63
2021/10/24 06:38:43;;;;;;;12.25;5.90;;;5.80;99.90;;;;;;5048862;28;20108;-61
2021/10/24 06:41:09;;;;;;;15.40;6.30;;;5.80;99.90;;;;;;5049642;28;20029;-61
2021/10/24 06:43:34;;;;;;;10.88;5.85;;;5.80;99.90;;;;;;5049795;28;20029;-61
2021/10/24 06:46:00;;;;;;;10.07;5.03;;;5.80;99.90;;;;;;5048878;28;20051;-63
2021/10/24 06:48:26;;;;;;;11.32;5.15;;;5.90;99.90;;;;;;5050089;28;20064;-62
2021/10/24 06:50:51;;;;;;;13.07;6.00;;;5.80;99.90;;;;;;5050463;28;20095;-62
2021/10/24 06:53:17;;;;;;;10.10;4.82;;;5.80;99.90;;;;;;5049292;28;20772;-61
2021/10/24 06:55:42;;;;;;;11.82;5.35;;;5.80;99.90;;;;;;5050386;28;20431;-63
2021/10/24 06:58:08;;;;;;;8.95;5.05;;;5.80;99.90;;;;;;5048237;28;20032;-63
2021/10/24 07:00:34;;;;;;;10.65;5.30;;;5.80;99.90;;;;;;5050251;28;20044;-62
2021/10/24 07:02:59;;;;;;;11.27;5.50;;;5.80;99.90;;;;;;5048873;28;20045;-60
2021/10/24 07:05:25;;;;;;;14.25;5.85;;;5.80;99.90;;;;;;5049733;28;20120;-62
2021/10/24 07:07:51;;;;;;;14.23;6.10;;;5.80;99.90;;;;;;5049709;28;20728;-62
2021/10/24 07:10:18;;;;;;;13.98;5.60;;;5.80;99.90;;;;;;5047934;28;20115;-63
2021/10/24 07:12:44;;;;;;;12.10;5.95;;;5.90;99.90;;;;;;5047930;28;20037;-62
2021/10/24 07:15:10;;;;;;;8.85;5.13;;;5.90;99.90;;;;;;5048664;28;20393;-61
2021/10/24 07:17:36;;;;;;;10.32;5.13;;;5.90;99.90;;;;;;5031658;28;20029;-61
2021/10/24 07:20:06;;;;;;;13.80;5.57;;;5.90;99.90;;;;;;5045445;28;20079;-61
2021/10/24 07:22:32;;;;;;;10.05;5.10;;;6.00;99.90;;;;;;5049407;28;20091;-61
2021/10/24 07:24:57;;;;;;;8.23;4.93;;;6.10;99.90;;;;;;5047900;28;20037;-61
2021/10/24 07:27:23;;;;;;;13.43;4.55;;;6.00;99.90;;;;;;5049234;28;20035;-62
2021/10/24 07:29:48;;;;;;;16.25;6.18;;;6.10;99.90;;;;;;5031139;28;20043;-63
2021/10/24 07:32:15;;;;;;;10.02;4.25;;;6.20;99.90;;;;;;5048145;28;20029;-61
2021/10/24 07:34:41;;;;;;;11.60;5.13;;;6.30;99.90;;;;;;5049091;28;20028;-63
2021/10/24 07:37:06;;;;;;;15.30;5.68;;;6.40;99.90;;;;;;5047631;28;20032;-61
2021/10/24 07:39:32;;;;;;;9.20;4.47;;;6.40;99.90;;;;;;5049392;28;20056;-60
2021/10/24 07:41:57;;;;;;;8.52;4.30;;;6.50;99.90;;;;;;5048283;28;20056;-60
2021/10/24 07:44:24;;;;;;;7.65;3.78;;;6.60;99.90;;;;;;5031339;28;20124;-62
2021/10/24 07:46:53;;;;;;;9.15;3.85;;;6.80;99.90;;;;;;5049388;28;20049;-61
2021/10/24 07:49:19;;;;;;;10.03;5.20;;;6.80;99.90;;;;;;5048065;28;20037;-61
2021/10/24 07:51:45;;;;;;;9.77;4.43;;;6.90;99.90;;;;;;5049193;28;20283;-63
2021/10/24 07:54:11;;;;;;;8.15;3.90;;;7.00;99.90;;;;;;5048035;28;20149;-61
2021/10/24 07:56:36;;;;;;;8.82;4.00;;;7.20;99.90;;;;;;5048855;28;20048;-63
2021/10/24 07:59:03;;;;;;;9.02;4.15;;;7.20;99.90;;;;;;5046953;28;20044;-61
2021/10/24 08:01:34;;;;;;;9.77;4.00;;;7.30;99.90;;;;;;5049006;28;20033;-61
2021/10/24 08:04:00;;;;;;;11.65;4.10;;;7.30;99.90;;;;;;5045948;28;20053;-61
2021/10/24 08:06:25;;;;;;;7.85;3.72;;;7.30;99.90;;;;;;5048579;28;20025;-63
2021/10/24 08:08:52;;;;;;;8.60;4.22;;;7.40;99.90;;;;;;5043720;28;20033;-60
2021/10/24 08:11:18;;;;;;;10.57;4.07;;;7.50;99.90;;;;;;5046564;28;20048;-62
2021/10/24 08:13:44;;;;;;;7.53;3.00;;;7.60;99.90;;;;;;5046977;28;20115;-63
2021/10/24 08:16:10;;;;;;;8.25;3.33;;;7.70;99.90;;;;;;5046790;28;20116;-62
2021/10/24 08:18:36;;;;;;;9.48;4.13;;;7.80;99.90;;;;;;5046920;28;20060;-62
2021/10/24 08:21:02;;;;;;;10.07;3.60;;;7.80;99.90;;;;;;5046674;28;20033;-62
2021/10/24 08:23:28;;;;;;;11.18;3.75;;;7.90;99.90;;;;;;5042769;28;20052;-62
2021/10/24 08:25:55;;;;;;;8.85;3.55;;;8.00;99.90;;;;;;5043209;28;20064;-65
2021/10/24 08:28:21;;;;;;;9.90;3.78;;;8.00;99.90;;;;;;5049032;28;20020;-61
2021/10/24 08:30:48;;;;;;;11.15;3.22;;;8.10;99.90;;;;;;5048240;28;20040;-62
2021/10/24 08:33:15;;;;;;;9.82;3.58;;;8.20;99.90;;;;;;5046199;28;20481;-62
2021/10/24 08:35:41;;;;;;;8.02;3.47;;;8.30;99.90;;;;;;5040115;28;20037;-61
2021/10/24 08:38:06;;;;;;;10.32;3.30;;;8.40;99.90;;;;;;5051925;28;20055;-64
2021/10/24 08:40:32;;;;;;;8.48;4.00;;;8.50;99.90;;;;;;5040427;28;20051;-63
2021/10/24 08:43:03;;;;;;;7.70;2.92;;;8.60;99.90;;;;;;5051868;28;20033;-64
2021/10/24 08:45:28;;;;;;;10.35;3.15;;;8.60;99.90;;;;;;5044444;28;20033;-63
2021/10/24 08:47:56;;;;;;;5.88;2.97;;;8.70;99.90;;;;;;5049597;28;20723;-62
2021/10/24 08:50:22;;;;;;;5.80;2.75;;;8.70;99.90;;;;;;5045063;28;20068;-62
2021/10/24 08:52:51;;;;;;;6.25;3.00;;;8.80;99.90;;;;;;5041530;28;20660;-62
2021/10/24 08:55:18;;;;;;;9.23;3.20;;;8.90;99.90;;;;;;5043376;28;20036;-62
2021/10/24 08:57:45;;;;;;;9.95;3.65;;;8.90;99.90;;;;;;5042122;28;20551;-61
2021/10/24 09:00:11;;;;;;;7.25;3.42;;;9.00;99.90;;;;;;5038737;28;20104;-63
2021/10/24 09:02:55;;;;;;;8.35;2.60;;;9.10;99.90;;;;;;5043979;28;20120;-63
2021/10/24 09:05:27;;;;;;;9.57;3.97;;;9.10;99.90;;;;;;5021985;28;20524;-62
2021/10/24 09:07:57;;;;;;;9.40;2.72;;;9.20;99.90;;;;;;5024860;28;20037;-61
2021/10/24 09:10:36;;;;;;;7.18;2.90;;;9.30;99.90;;;;;;5048989;28;20029;-63
2021/10/24 09:13:10;;;;;;;6.85;2.83;;;9.40;99.90;;;;;;5045557;28;20108;-62
2021/10/24 09:15:47;;;;;;;9.00;3.10;;;9.40;99.90;;;;;;5049600;28;20037;-61
2021/10/24 09:18:14;;;;;;;10.65;3.47;;;9.50;99.90;;;;;;5048245;28;20040;-63
2021/10/24 09:20:42;;;;;;;9.20;2.78;;;9.60;99.90;;;;;;5048961;28;20033;-61
2021/10/24 09:23:10;;;;;;;6.75;2.40;;;9.70;99.90;;;;;;5049097;28;20045;-63
2021/10/24 09:25:50;;;;;;;9.40;2.75;;;9.80;99.90;;;;;;5046200;28;20025;-62
2021/10/24 09:28:20;;;;;;;5.18;2.40;;;9.80;99.90;;;;;;5043705;28;20743;-61
2021/10/24 09:31:06;;;;;;;8.90;2.63;;;9.90;99.90;;;;;;5045624;28;20029;-63
2021/10/24 09:33:45;;;;;;;12.43;3.17;;;9.90;99.90;;;;;;5042046;28;20145;-61
2021/10/24 09:36:12;;;;;;;11.80;2.90;;;9.90;99.90;;;;;;5050185;28;20751;-61
2021/10/24 09:38:40;;;;;;;10.05;3.50;;;9.90;99.90;;;;;;5050230;28;20499;-61
2021/10/24 09:41:06;;;;;;;5.55;2.22;;;10.00;99.90;;;;;;5030878;28;20114;-63
2021/10/24 09:43:32;;;;;;;12.38;3.00;;;10.00;99.90;;;;;;5049645;28;20739;-63
2021/10/24 09:45:58;;;;;;;6.55;2.53;;;10.10;99.90;;;;;;5050220;28;20037;-61
2021/10/24 09:48:27;;;;;;;7.95;3.22;;;10.10;99.90;;;;;;5050899;28;20389;-64
2021/10/24 09:50:55;;;;;;;5.63;2.40;;;10.20;99.90;;;;;;5033728;28;20222;-60
2021/10/24 09:53:29;;;;;;;5.72;2.70;;;10.20;99.90;;;;;;5050717;28;20534;-62
2021/10/24 09:55:57;;;;;;;4.25;2.30;;;10.30;99.90;;;;;;5048506;28;20037;-61
2021/10/24 09:58:44;;;;;;;4.28;2.38;;;10.30;99.90;;;;;;5050490;28;20033;-61
2021/10/24 10:01:12;;;;;;;4.88;2.95;;;10.30;99.90;;;;;;5032550;28;20200;-62
2021/10/24 10:03:42;;;;;;;6.13;2.60;;;10.40;99.90;;;;;;5051097;28;20412;-62
2021/10/24 10:06:08;;;;;;;4.95;2.20;;;10.40;99.90;;;;;;5050230;28;20183;-63
2021/10/24 10:08:37;;;;;;;4.55;2.55;;;10.40;99.90;;;;;;5050888;28;20529;-61
2021/10/24 10:11:18;;;;;;;8.75;2.45;;;10.50;99.90;;;;;;5050063;28;20556;-61
2021/10/24 10:13:47;;;;;;;6.63;2.85;;;10.50;99.90;;;;;;5051351;28;20497;-64
2021/10/24 10:16:15;;;;;;;6.35;2.90;;;10.60;99.90;;;;;;5050208;28;20036;-61
2021/10/24 10:18:56;;;;;;;8.88;2.42;;;10.70;99.90;;;;;;5050909;28;20505;-61
2021/10/24 10:21:31;;;;;;;4.05;2.13;;;10.80;99.90;;;;;;5045809;28;20413;-61
2021/10/24 10:23:57;;;;;;;4.30;2.03;;;10.90;99.90;;;;;;5048032;28;20057;-61
2021/10/24 10:26:39;;;;;;;9.75;2.45;;;10.80;99.90;;;;;;5048419;28;20104;-61
2021/10/24 10:29:35;;;;;;;4.03;2.25;;;10.90;99.90;;;;;;5049760;28;20053;-61
2021/10/24 10:32:18;;;;;;;6.45;2.85;;;10.90;99.90;;;;;;5047561;28;20041;-62
2021/10/24 10:34:56;;;;;;;8.40;2.17;;;11.00;99.90;;;;;;5046845;28;20037;-61
2021/10/24 10:37:50;;;;;;;4.63;2.22;;;11.00;99.90;;;;;;5043237;28;20432;-61
2021/10/24 10:40:24;;;;;;;4.53;2.22;;;11.10;99.90;;;;;;5045546;28;20044;-61
2021/10/24 10:42:52;;;;;;;4.28;1.90;;;11.10;99.90;;;;;;5047498;28;20040;-60
2021/10/24 10:45:27;;;;;;;3.72;2.00;;;11.10;99.90;;;;;;5049655;28;20130;-63
2021/10/24 10:48:04;;;;;;;4.28;2.30;;;11.10;99.90;;;;;;5032622;28;20037;-60
2021/10/24 10:50:30;;;;;;;6.40;2.03;;;11.10;99.90;;;;;;5049649;28;20048;-61
2021/10/24 10:53:02;;;;;;;5.45;2.00;;;11.10;99.90;;;;;;5049644;28;20049;-62
2021/10/24 10:56:00;;;;;;;6.40;2.03;;;11.10;99.90;;;;;;5050388;28;20087;-61
2021/10/24 10:58:38;;;;;;;7.38;2.28;;;11.20;99.90;;;;;;5046907;28;20041;-61
2021/10/24 11:01:06;;;;;;;6.20;2.30;;;11.20;99.90;;;;;;5030968;28;20350;-61
2021/10/24 11:04:12;;;;;;;4.63;1.90;;;11.30;99.90;;;;;;5049899;28;20485;-61
2021/10/24 11:06:37;;;;;;;6.38;2.47;;;11.40;99.90;;;;;;5048908;28;20117;-62
2021/10/24 11:09:32;;;;;;;7.32;2.13;;;11.40;99.90;;;;;;5031051;28;20124;-63
2021/10/24 11:11:58;;;;;;;5.97;2.53;;;11.40;99.90;;;;;;5047198;28;20485;-62
2021/10/24 11:14:33;;;;;;;5.18;2.25;;;11.40;99.90;;;;;;5049853;28;20437;-61
2021/10/24 11:17:00;;;;;;;7.10;2.25;;;11.50;99.90;;;;;;5049185;28;20047;-60
2021/10/24 11:19:39;;;;;;;5.68;2.20;;;11.50;99.90;;;;;;5049777;28;20065;-61
2021/10/24 11:22:12;;;;;;;6.03;2.72;;;11.60;99.90;;;;;;5049203;28;20045;-61
2021/10/24 11:24:49;;;;;;;5.25;2.55;;;11.60;99.90;;;;;;5049685;28;20045;-61
2021/10/24 11:27:17;;;;;;;7.53;2.20;;;11.60;99.90;;;;;;5041317;28;20094;-60
2021/10/24 11:29:54;;;;;;;9.50;3.47;;;11.60;99.90;;;;;;5045769;28;20064;-61
2021/10/24 11:32:33;;;;;;;8.77;2.58;;;11.60;99.90;;;;;;5044772;28;20051;-60
2021/10/24 11:35:00;;;;;;;5.57;2.05;;;11.50;99.90;;;;;;5030939;28;20039;-62
2021/10/24 11:37:35;;;;;;;5.00;2.22;;;11.50;99.90;;;;;;5046354;28;20367;-62
2021/10/24 11:40:09;;;;;;;5.57;2.53;;;11.50;99.90;;;;;;5030604;28;20122;-61
2021/10/24 11:42:36;;;;;;;11.75;2.80;;;11.50;99.90;;;;;;5049595;28;20459;-60
2021/10/24 11:45:22;;;;;;;7.55;3.10;;;11.60;99.90;;;;;;5048536;28;20052;-61
2021/10/24 11:48:00;;;;;;;9.88;2.53;;;11.60;99.90;;;;;;5019949;28;20029;-61
2021/10/24 11:50:50;;;;;;;6.78;2.33;;;11.70;99.90;;;;;;5048960;28;20059;-61
2021/10/24 11:53:19;;;;;;;8.23;2.45;;;11.60;99.90;;;;;;5045186;28;20072;-62
2021/10/24 11:55:47;;;;;;;7.75;2.80;;;11.70;99.90;;;;;;5049395;28;20045;-61
2021/10/24 12:03:21;;;;;;;8.68;2.10;;;11.80;99.90;;;;;;5048049;28;20040;-62
2021/10/24 12:05:47;;;;;;;5.95;2.38;;;11.80;99.90;;;;;;5046025;28;20025;-62
2021/10/24 12:08:13;;;;;;;3.65;2.30;;;11.80;99.90;;;;;;5048055;28;20086;-62
2021/10/24 12:10:39;;;;;;;4.60;2.25;;;11.80;99.90;;;;;;5044774;28;20516;-61
2021/10/24 12:13:25;;;;;;;6.15;2.50;;;11.80;99.90;;;;;;5048099;28;20405;-61
2021/10/24 12:15:51;;;;;;;9.82;2.10;;;11.80;99.90;;;;;;5046212;28;20053;-61
2021/10/24 12:18:17;;;;;;;9.80;3.15;;;11.90;99.90;;;;;;5047677;28;20039;-62
2021/10/24 12:20:56;;;;;;;7.65;2.58;;;11.90;99.90;;;;;;5048879;28;20041;-61
2021/10/24 12:23:22;;;;;;;6.85;2.25;;;11.90;99.90;;;;;;5045887;28;20747;-61
2021/10/24 12:25:51;;;;;;;7.00;3.58;;;12.00;99.90;;;;;;5048742;28;20112;-61
2021/10/24 12:28:30;;;;;;;8.73;2.72;;;12.00;99.90;;;;;;5043381;28;20033;-62
2021/10/24 12:31:19;;;;;;;4.93;2.45;;;12.00;99.90;;;;;;5048653;28;20045;-62
2021/10/24 12:33:46;;;;;;;8.80;3.22;;;11.90;99.90;;;;;;5045008;28;20659;-61
2021/10/24 12:36:28;;;;;;;4.13;2.15;;;12.00;99.90;;;;;;5047873;28;20094;-63
2021/10/24 12:38:57;;;;;;;3.40;1.90;;;12.00;99.90;;;;;;5046313;28;20426;-63
2021/10/24 12:41:37;;;;;;;4.82;2.20;;;12.00;99.90;;;;;;5047958;28;20492;-61
2021/10/24 12:44:04;;;;;;;9.27;3.10;;;12.00;99.90;;;;;;5047417;28;20033;-61
2021/10/24 12:46:35;;;;;;;9.40;3.40;;;12.10;99.90;;;;;;5048453;28;20041;-60
2021/10/24 12:49:16;;;;;;;5.40;2.30;;;12.10;99.90;;;;;;5047051;28;20057;-61
2021/10/24 12:51:44;;;;;;;10.38;3.88;;;12.10;99.90;;;;;;5047289;28;20044;-63
2021/10/24 12:54:11;;;;;;;5.82;2.85;;;12.00;99.90;;;;;;5047308;28;20056;-61
2021/10/24 12:56:40;;;;;;;8.63;3.20;;;12.10;99.90;;;;;;5044532;28;20091;-60
2021/10/24 12:59:07;;;;;;;9.27;2.78;;;12.10;99.90;;;;;;5045349;28;20033;-63